createdAt,value
2019-03-01T00:00:29.731Z,63.31
2019-03-01T00:02:55.900Z,63.85
2019-03-01T00:05:34.534Z,63.63
2019-03-01T00:08:14.390Z,63.05
2019-03-01T00:11:17.553Z,63.03
2019-03-01T00:13:53.242Z,62.48
2019-03-01T00:16:37.805Z,63.05
2019-03-01T00:19:14.095Z,63.28
2019-03-01T00:22:00.484Z,62.90
2019-03-01T00:24:50.056Z,63.58
2019-03-01T00:27:36.092Z,62.66
2019-03-01T00:30:26.007Z,62.25
2019-03-01T00:32:58.433Z,62.68
2019-03-01T00:35:31.235Z,62.74
2019-03-01T00:38:21.738Z,63.52
2019-03-01T00:40:54.240Z,63.53
2019-03-01T00:43:36.039Z,64.66
2019-03-01T00:46:02.075Z,65.38
2019-03-01T00:48:28.049Z,65.05
2019-03-01T00:50:53.879Z,64.03
2019-03-01T00:53:20.008Z,64.23
2019-03-01T00:55:45.970Z,63.43
2019-03-01T00:58:11.810Z,63.00
2019-03-01T01:00:41.533Z,62.91
2019-03-01T01:03:07.490Z,63.11
2019-03-01T01:05:33.462Z,63.13
2019-03-01T01:07:59.565Z,63.25
2019-03-01T01:10:25.493Z,63.38
2019-03-01T01:12:51.471Z,63.50
2019-03-01T01:15:17.496Z,63.44
2019-03-01T01:17:43.329Z,63.25
2019-03-01T01:20:09.425Z,63.48
2019-03-01T01:22:35.271Z,63.76
2019-03-01T01:25:01.174Z,63.86
2019-03-01T01:27:27.056Z,63.47
2019-03-01T01:29:52.880Z,63.65
2019-03-01T01:32:18.809Z,63.80
2019-03-01T01:34:44.678Z,63.86
2019-03-01T01:37:10.495Z,64.14
2019-03-01T01:39:36.334Z,63.91
2019-03-01T01:42:04.271Z,64.50
2019-03-01T01:44:30.105Z,64.75
2019-03-01T01:46:55.912Z,64.87
2019-03-01T01:49:21.753Z,64.56
2019-03-01T01:51:47.558Z,64.44
2019-03-01T01:54:13.423Z,64.73
2019-03-01T01:56:39.241Z,64.62
2019-03-01T01:59:05.063Z,64.78
2019-03-01T02:01:31.222Z,66.19
2019-03-01T02:03:57.049Z,66.01
2019-03-01T02:06:22.993Z,65.33
2019-03-01T02:08:49.018Z,64.91
2019-03-01T02:11:15.029Z,64.95
2019-03-01T02:13:40.848Z,64.68
2019-03-01T02:16:06.816Z,64.81
2019-03-01T02:18:32.617Z,64.93
2019-03-01T02:20:58.477Z,64.50
2019-03-01T02:23:24.343Z,64.34
2019-03-01T02:25:50.259Z,64.48
2019-03-01T02:28:16.076Z,64.44
2019-03-01T02:30:45.764Z,64.57
2019-03-01T02:33:11.589Z,64.57
2019-03-01T02:35:37.413Z,64.65
2019-03-01T02:38:03.243Z,65.12
2019-03-01T02:40:29.063Z,65.65
2019-03-01T02:42:55.055Z,65.96
2019-03-01T02:45:21.031Z,65.72
2019-03-01T02:47:46.936Z,65.32
2019-03-01T02:50:14.896Z,65.83
2019-03-01T02:52:40.727Z,66.84
2019-03-01T02:55:09.353Z,66.12
2019-03-01T02:57:35.195Z,66.13
2019-03-01T03:00:01.157Z,65.98
2019-03-01T03:02:27.110Z,65.31
2019-03-01T03:04:52.942Z,64.69
2019-03-01T03:07:23.639Z,64.70
2019-03-01T03:09:49.656Z,64.56
2019-03-01T03:12:15.478Z,64.27
2019-03-01T03:14:41.563Z,64.17
2019-03-01T03:17:07.502Z,64.34
2019-03-01T03:19:33.331Z,64.65
2019-03-01T03:22:02.647Z,65.24
2019-03-01T03:24:28.506Z,65.41
2019-03-01T03:26:54.355Z,65.46
2019-03-01T03:29:20.207Z,65.28
2019-03-01T03:31:46.154Z,64.72
2019-03-01T03:34:12.045Z,64.79
2019-03-01T03:36:37.874Z,65.33
2019-03-01T03:39:05.020Z,65.62
2019-03-01T03:41:31.002Z,65.67
2019-03-01T03:43:56.826Z,65.91
2019-03-01T03:46:22.660Z,65.96
2019-03-01T03:48:48.627Z,65.81
2019-03-01T03:51:14.571Z,66.21
2019-03-01T03:53:40.525Z,65.19
2019-03-01T03:56:06.392Z,65.14
2019-03-01T03:58:32.358Z,64.89
2019-03-01T04:00:58.454Z,65.20
2019-03-01T04:03:24.283Z,65.31
2019-03-01T04:05:50.314Z,65.47
2019-03-01T04:08:16.392Z,65.96
2019-03-01T04:10:42.219Z,65.99
2019-03-01T04:13:08.190Z,66.56
2019-03-01T04:15:34.250Z,66.64
2019-03-01T04:18:00.280Z,67.30
2019-03-01T04:20:26.200Z,67.85
2019-03-01T04:22:52.128Z,67.36
2019-03-01T04:25:18.079Z,67.18
2019-03-01T04:27:44.010Z,67.07
2019-03-01T04:30:12.404Z,67.04
2019-03-01T04:32:38.201Z,67.03
2019-03-01T04:35:04.440Z,66.98
2019-03-01T04:37:30.437Z,67.04
2019-03-01T04:39:56.267Z,67.17
2019-03-01T04:42:22.238Z,66.70
2019-03-01T04:44:48.136Z,66.73
2019-03-01T04:47:14.011Z,66.75
2019-03-01T04:49:40.193Z,66.50
2019-03-01T04:52:25.080Z,66.51
2019-03-01T04:54:50.899Z,65.79
2019-03-01T04:57:16.774Z,65.92
2019-03-01T04:59:42.663Z,66.31
2019-03-01T05:02:08.628Z,66.83
2019-03-01T05:04:34.487Z,67.60
2019-03-01T05:07:00.451Z,68.32
2019-03-01T05:09:26.417Z,68.51
2019-03-01T05:11:52.254Z,69.04
2019-03-01T05:14:18.074Z,68.38
2019-03-01T05:16:44.036Z,68.64
2019-03-01T05:19:09.865Z,68.32
2019-03-01T05:21:35.783Z,68.08
2019-03-01T05:24:01.753Z,67.98
2019-03-01T05:26:27.583Z,68.00
2019-03-01T05:28:53.485Z,67.65
2019-03-01T05:31:19.334Z,67.37
2019-03-01T05:33:45.167Z,67.82
2019-03-01T05:36:11.246Z,67.70
2019-03-01T05:38:37.174Z,67.81
2019-03-01T05:41:03.005Z,67.72
2019-03-01T05:43:28.956Z,67.50
2019-03-01T05:45:54.928Z,66.87
2019-03-01T05:48:20.771Z,67.57
2019-03-01T05:50:46.642Z,68.08
2019-03-01T05:53:12.780Z,68.63
2019-03-01T05:55:38.764Z,68.83
2019-03-01T05:58:28.207Z,68.51
2019-03-01T06:01:00.940Z,68.72
2019-03-01T06:03:48.445Z,68.55
2019-03-01T06:06:26.844Z,68.31
2019-03-01T06:09:19.206Z,68.48
2019-03-01T06:12:09.824Z,68.62
2019-03-01T06:15:02.407Z,68.96
2019-03-01T06:17:52.005Z,69.26
2019-03-01T06:20:24.576Z,69.77
2019-03-01T06:23:03.538Z,69.22
2019-03-01T06:25:33.312Z,68.61
2019-03-01T06:28:14.732Z,67.41
2019-03-01T06:30:52.107Z,67.26
2019-03-01T06:33:37.412Z,67.12
2019-03-01T06:36:15.835Z,66.97
2019-03-01T06:38:53.288Z,67.22
2019-03-01T06:41:41.466Z,66.96
2019-03-01T06:44:23.401Z,66.89
2019-03-01T06:47:11.595Z,66.81
2019-03-01T06:49:48.553Z,66.08
2019-03-01T06:52:14.617Z,65.56
2019-03-01T06:54:40.559Z,64.61
2019-03-01T06:57:06.440Z,64.61
2019-03-01T06:59:32.315Z,64.60
2019-03-01T07:01:58.170Z,64.18
2019-03-01T07:04:24.046Z,64.01
2019-03-01T07:06:49.901Z,63.60
2019-03-01T07:09:15.818Z,63.50
2019-03-01T07:11:41.896Z,63.40
2019-03-01T07:14:07.936Z,63.49
2019-03-01T07:16:33.944Z,62.72
2019-03-01T07:18:59.937Z,63.08
2019-03-01T07:21:25.880Z,63.25
2019-03-01T07:23:51.765Z,63.28
2019-03-01T07:26:17.678Z,62.77
2019-03-01T07:28:43.621Z,62.26
2019-03-01T07:31:10.011Z,61.76
2019-03-01T07:33:35.967Z,61.91
2019-03-01T07:36:01.810Z,61.77
2019-03-01T07:38:27.780Z,61.42
2019-03-01T07:40:53.620Z,61.29
2019-03-01T07:43:19.512Z,60.86
2019-03-01T07:45:45.379Z,60.82
2019-03-01T07:48:11.768Z,60.63
2019-03-01T07:50:37.543Z,60.31
2019-03-01T07:53:04.618Z,60.37
2019-03-01T07:55:30.899Z,60.36
2019-03-01T07:57:56.743Z,60.47
2019-03-01T08:00:22.759Z,60.42
2019-03-01T08:02:48.872Z,60.03
2019-03-01T08:05:16.482Z,59.46
2019-03-01T08:07:42.780Z,59.42
2019-03-01T08:10:12.374Z,59.69
2019-03-01T08:12:42.157Z,59.52
2019-03-01T08:15:14.152Z,59.16
2019-03-01T08:17:39.975Z,58.77
2019-03-01T08:20:11.387Z,58.34
2019-03-01T08:22:47.590Z,57.40
2019-03-01T08:25:07.214Z,57.00
2019-03-01T08:27:33.203Z,57.35
2019-03-01T08:29:59.083Z,57.70
2019-03-01T08:32:27.471Z,56.93
2019-03-01T08:34:53.749Z,56.08
2019-03-01T08:37:20.560Z,55.88
2019-03-01T08:39:46.475Z,55.90
2019-03-01T08:42:12.725Z,55.41
2019-03-01T08:44:38.603Z,55.17
2019-03-01T08:47:04.537Z,55.03
2019-03-01T08:49:30.390Z,55.35
2019-03-01T08:51:58.486Z,56.01
2019-03-01T08:54:26.452Z,57.37
2019-03-01T08:56:52.284Z,58.35
2019-03-01T08:59:18.716Z,59.39
2019-03-01T09:01:45.803Z,59.82
2019-03-01T09:04:14.209Z,59.65
2019-03-01T09:06:41.799Z,59.45
2019-03-01T09:09:08.716Z,58.78
2019-03-01T09:11:34.863Z,57.75
2019-03-01T09:14:00.775Z,56.99
2019-03-01T09:16:26.686Z,56.19
2019-03-01T09:18:53.208Z,55.26
2019-03-01T09:21:19.629Z,53.76
2019-03-01T09:23:48.027Z,52.99
2019-03-01T09:26:16.566Z,51.03
2019-03-01T09:28:41.481Z,49.72
2019-03-01T09:31:07.667Z,50.39
2019-03-01T09:33:33.610Z,50.02
2019-03-01T09:36:01.593Z,49.40
2019-03-01T09:38:27.481Z,50.25
2019-03-01T09:40:53.711Z,53.36
2019-03-01T09:43:19.817Z,54.70
2019-03-01T09:45:48.855Z,56.54
2019-03-01T09:48:15.374Z,56.70
2019-03-01T09:50:41.306Z,56.90
2019-03-01T09:53:07.235Z,56.37
2019-03-01T09:55:34.766Z,55.17
2019-03-01T09:58:01.025Z,55.40
2019-03-01T10:00:56.145Z,55.37
2019-03-01T10:03:19.781Z,56.43
2019-03-01T10:05:45.826Z,55.73
2019-03-01T10:08:11.765Z,55.67
2019-03-01T10:10:37.808Z,55.08
2019-03-01T10:13:03.879Z,55.42
2019-03-01T10:15:29.922Z,56.42
2019-03-01T10:17:55.743Z,56.42
2019-03-01T10:20:21.719Z,56.23
2019-03-01T10:22:47.685Z,55.86
2019-03-01T10:25:16.443Z,56.68
2019-03-01T10:27:42.481Z,56.20
2019-03-01T10:30:22.769Z,55.23
2019-03-01T10:32:48.696Z,56.03
2019-03-01T10:35:14.749Z,56.03
2019-03-01T10:37:40.807Z,55.43
2019-03-01T10:40:09.784Z,54.91
2019-03-01T10:42:35.621Z,54.88
2019-03-01T10:45:01.575Z,54.92
2019-03-01T10:47:27.419Z,54.77
2019-03-01T10:49:53.370Z,54.59
2019-03-01T10:52:19.290Z,54.16
2019-03-01T10:54:45.125Z,54.43
2019-03-01T10:57:11.162Z,53.97
2019-03-01T10:59:37.209Z,54.00
2019-03-01T11:02:03.275Z,53.75
2019-03-01T11:04:29.625Z,53.18
2019-03-01T11:06:55.518Z,53.64
2019-03-01T11:09:21.549Z,52.64
2019-03-01T11:11:47.458Z,52.40
2019-03-01T11:14:13.455Z,52.88
2019-03-01T11:16:39.456Z,52.39
2019-03-01T11:19:05.410Z,52.36
2019-03-01T11:21:31.353Z,51.37
2019-03-01T11:23:57.168Z,51.29
2019-03-01T11:26:23.153Z,50.66
2019-03-01T11:28:49.014Z,51.12
2019-03-01T11:31:15.053Z,50.68
2019-03-01T11:33:40.936Z,51.64
2019-03-01T11:36:06.986Z,50.71
2019-03-01T11:38:32.854Z,50.15
2019-03-01T11:40:58.812Z,49.46
2019-03-01T11:43:24.678Z,49.92
2019-03-01T11:45:50.630Z,48.74
2019-03-01T11:48:16.628Z,47.87
2019-03-01T11:50:42.546Z,49.43
2019-03-01T11:53:08.532Z,49.85
2019-03-01T11:55:34.478Z,49.96
2019-03-01T11:58:00.344Z,49.13
2019-03-01T12:00:27.676Z,48.11
2019-03-01T12:02:53.600Z,48.30
2019-03-01T12:05:20.210Z,48.22
2019-03-01T12:07:46.243Z,47.24
2019-03-01T12:10:14.206Z,46.01
2019-03-01T12:12:40.300Z,46.40
2019-03-01T12:15:08.328Z,47.06
2019-03-01T12:17:34.256Z,46.28
2019-03-01T12:20:00.284Z,46.26
2019-03-01T12:22:26.107Z,47.44
2019-03-01T12:24:52.143Z,47.21
2019-03-01T12:27:18.133Z,46.00
2019-03-01T12:29:47.280Z,44.47
2019-03-01T12:32:13.224Z,45.37
2019-03-01T12:34:39.279Z,46.16
2019-03-01T12:37:05.337Z,44.79
2019-03-01T12:39:31.247Z,45.22
2019-03-01T12:41:57.112Z,40.55
2019-03-01T12:44:23.030Z,28.40
2019-03-01T12:46:48.877Z,26.65
2019-03-01T12:49:14.887Z,23.57
2019-03-01T12:51:40.710Z,22.15
2019-03-01T12:54:06.530Z,20.50
2019-03-01T12:56:32.438Z,20.62
2019-03-01T12:58:58.278Z,21.20
2019-03-01T13:01:24.109Z,20.20
2019-03-01T13:03:50.027Z,22.83
2019-03-01T13:06:15.939Z,24.65
2019-03-01T13:08:41.734Z,21.82
2019-03-01T13:11:07.575Z,20.41
2019-03-01T13:13:34.667Z,24.25
2019-03-01T13:16:01.257Z,23.31
2019-03-01T13:18:27.126Z,24.78
2019-03-01T13:20:52.950Z,23.95
2019-03-01T13:23:18.898Z,24.98
2019-03-01T13:25:44.963Z,18.96
2019-03-01T13:28:10.926Z,19.10
2019-03-01T13:30:36.852Z,21.33
2019-03-01T13:33:03.650Z,21.80
2019-03-01T13:35:29.690Z,19.62
2019-03-01T13:37:56.748Z,20.28
2019-03-01T13:40:24.386Z,18.55
2019-03-01T13:42:51.806Z,20.66
2019-03-01T13:45:20.620Z,18.29
2019-03-01T13:47:46.828Z,18.65
2019-03-01T13:50:15.672Z,20.77
2019-03-01T13:52:41.996Z,22.03
2019-03-01T13:55:09.288Z,23.37
2019-03-01T13:57:35.126Z,20.27
2019-03-01T14:00:01.146Z,19.74
2019-03-01T14:02:27.074Z,18.98
2019-03-01T14:04:52.922Z,18.20
2019-03-01T14:07:18.804Z,19.25
2019-03-01T14:09:44.741Z,21.26
2019-03-01T14:12:10.566Z,20.15
2019-03-01T14:14:36.575Z,22.24
2019-03-01T14:17:02.599Z,19.76
2019-03-01T14:19:28.452Z,16.72
2019-03-01T14:21:54.351Z,22.46
2019-03-01T14:24:20.175Z,19.49
2019-03-01T14:26:46.172Z,19.47
2019-03-01T14:29:12.782Z,20.20
2019-03-01T14:31:39.731Z,23.52
2019-03-01T14:34:08.299Z,20.43
2019-03-01T14:36:34.439Z,20.51
2019-03-01T14:39:00.265Z,25.21
2019-03-01T14:41:26.223Z,26.34
2019-03-01T14:43:52.176Z,29.20
2019-03-01T14:46:20.934Z,32.98
2019-03-01T14:48:46.175Z,35.41
2019-03-01T14:51:12.803Z,34.60
2019-03-01T14:53:38.698Z,36.49
2019-03-01T14:56:16.801Z,36.46
2019-03-01T14:59:13.612Z,38.43
2019-03-01T15:01:55.116Z,38.90
2019-03-01T15:04:21.015Z,39.36
2019-03-01T15:06:46.847Z,38.76
2019-03-01T15:09:12.983Z,38.68
2019-03-01T15:11:41.166Z,38.81
2019-03-01T15:14:12.075Z,39.75
2019-03-01T15:16:34.873Z,39.66
2019-03-01T15:19:00.705Z,40.20
2019-03-01T15:21:26.641Z,39.77
2019-03-01T15:23:52.637Z,38.88
2019-03-01T15:26:18.524Z,38.55
2019-03-01T15:28:46.472Z,37.58
2019-03-01T15:31:12.297Z,36.96
2019-03-01T15:33:38.257Z,36.67
2019-03-01T15:36:04.186Z,35.64
2019-03-01T15:38:30.003Z,35.21
2019-03-01T15:40:56.056Z,35.32
2019-03-01T15:43:21.890Z,34.53
2019-03-01T15:45:48.004Z,35.25
2019-03-01T15:48:13.951Z,34.13
2019-03-01T15:50:39.909Z,32.90
2019-03-01T15:53:06.005Z,33.07
2019-03-01T15:55:31.946Z,33.70
2019-03-01T15:57:57.788Z,34.91
2019-03-01T16:00:25.689Z,34.04
2019-03-01T16:02:53.210Z,35.00
2019-03-01T16:05:19.460Z,36.52
2019-03-01T16:07:45.525Z,37.06
2019-03-01T16:10:13.383Z,37.05
2019-03-01T16:12:39.319Z,37.45
2019-03-01T16:15:10.907Z,38.91
2019-03-01T16:17:36.927Z,39.71
2019-03-01T16:20:06.688Z,39.70
2019-03-01T16:22:32.551Z,39.41
2019-03-01T16:24:58.466Z,39.21
2019-03-01T16:27:24.332Z,39.62
2019-03-01T16:29:50.155Z,39.81
2019-03-01T16:32:16.143Z,41.02
2019-03-01T16:34:45.214Z,41.35
2019-03-01T16:37:11.060Z,42.47
2019-03-01T16:39:37.086Z,42.88
2019-03-01T16:42:03.032Z,43.67
2019-03-01T16:44:28.848Z,43.95
2019-03-01T16:46:54.721Z,44.61
2019-03-01T16:49:23.628Z,45.46
2019-03-01T16:51:50.668Z,46.01
2019-03-01T16:54:16.516Z,46.09
2019-03-01T16:56:42.518Z,46.82
2019-03-01T16:59:08.489Z,46.79
2019-03-01T17:01:34.419Z,46.57
2019-03-01T17:04:00.737Z,47.43
2019-03-01T17:06:26.761Z,47.38
2019-03-01T17:08:53.282Z,47.68
2019-03-01T17:11:19.161Z,47.78
2019-03-01T17:13:45.097Z,47.83
2019-03-01T17:16:11.071Z,47.90
2019-03-01T17:18:37.024Z,48.46
2019-03-01T17:21:03.061Z,48.57
2019-03-01T17:23:28.924Z,48.55
2019-03-01T17:25:54.756Z,49.08
2019-03-01T17:28:22.699Z,48.90
2019-03-01T17:30:50.790Z,49.12
2019-03-01T17:33:16.117Z,49.22
2019-03-01T17:35:42.174Z,49.05
2019-03-01T17:38:08.295Z,49.24
2019-03-01T17:40:35.814Z,49.31
2019-03-01T17:43:01.814Z,49.55
2019-03-01T17:45:27.639Z,49.63
2019-03-01T17:47:55.320Z,49.79
2019-03-01T17:50:21.450Z,50.22
2019-03-01T17:52:47.372Z,50.31
2019-03-01T17:55:17.720Z,50.16
2019-03-01T17:57:43.649Z,50.25
2019-03-01T18:00:12.159Z,50.21
2019-03-01T18:02:38.002Z,50.18
2019-03-01T18:05:06.790Z,50.62
2019-03-01T18:07:32.632Z,50.43
2019-03-01T18:09:58.585Z,50.83
2019-03-01T18:12:24.542Z,51.42
2019-03-01T18:14:50.468Z,51.42
2019-03-01T18:17:16.290Z,52.79
2019-03-01T18:19:42.266Z,53.23
2019-03-01T18:22:08.146Z,52.26
2019-03-01T18:24:33.998Z,52.22
2019-03-01T18:26:59.968Z,52.68
2019-03-01T18:29:25.834Z,53.01
2019-03-01T18:31:51.793Z,53.08
2019-03-01T18:34:17.631Z,54.05
2019-03-01T18:36:45.708Z,54.03
2019-03-01T18:39:11.488Z,53.49
2019-03-01T18:41:37.823Z,53.79
2019-03-01T18:44:03.781Z,54.31
2019-03-01T18:46:29.731Z,54.07
2019-03-01T18:48:55.874Z,54.63
2019-03-01T18:51:21.946Z,54.82
2019-03-01T18:53:47.878Z,55.30
2019-03-01T18:56:13.755Z,54.46
2019-03-01T18:58:39.591Z,55.02
2019-03-01T19:01:07.738Z,56.14
2019-03-01T19:03:36.569Z,56.24
2019-03-01T19:06:04.672Z,56.67
2019-03-01T19:08:30.719Z,57.12
2019-03-01T19:10:59.672Z,57.28
2019-03-01T19:13:25.674Z,58.00
2019-03-01T19:15:54.452Z,57.83
2019-03-01T19:18:19.655Z,58.30
2019-03-01T19:20:47.779Z,59.31
2019-03-01T19:23:13.635Z,59.05
2019-03-01T19:25:39.579Z,58.49
2019-03-01T19:28:05.563Z,59.68
2019-03-01T19:30:31.497Z,59.52
2019-03-01T19:32:58.883Z,59.46
2019-03-01T19:35:29.575Z,60.41
2019-03-01T19:37:57.166Z,60.20
2019-03-01T19:40:23.467Z,61.04
2019-03-01T19:42:49.537Z,60.53
2019-03-01T19:45:17.970Z,61.30
2019-03-01T19:47:44.035Z,61.18
2019-03-01T19:50:11.896Z,60.73
2019-03-01T19:52:37.749Z,60.75
2019-03-01T19:55:08.020Z,60.74
2019-03-01T19:57:36.378Z,60.63
2019-03-01T20:00:04.114Z,61.01
2019-03-01T20:02:30.972Z,61.11
2019-03-01T20:04:57.593Z,61.53
2019-03-01T20:07:23.445Z,61.54
2019-03-01T20:09:49.353Z,62.17
2019-03-01T20:12:15.410Z,62.28
2019-03-01T20:14:41.243Z,62.38
2019-03-01T20:17:07.292Z,61.58
2019-03-01T20:19:33.145Z,61.33
2019-03-01T20:21:59.143Z,61.47
2019-03-01T20:24:24.987Z,62.45
2019-03-01T20:26:51.046Z,63.10
2019-03-01T20:29:16.902Z,62.55
2019-03-01T20:31:42.791Z,62.89
2019-03-01T20:34:08.637Z,62.72
2019-03-01T20:36:34.731Z,62.81
2019-03-01T20:39:00.857Z,62.65
2019-03-01T20:41:26.683Z,62.54
2019-03-01T20:43:52.560Z,63.17
2019-03-01T20:46:18.427Z,63.17
2019-03-01T20:48:44.425Z,63.48
2019-03-01T20:51:10.354Z,63.29
2019-03-01T20:53:36.187Z,63.55
2019-03-01T20:56:02.206Z,63.54
2019-03-01T20:58:28.027Z,64.60
2019-03-01T21:00:54.055Z,64.94
2019-03-01T21:03:20.044Z,65.15
2019-03-01T21:05:45.887Z,65.41
2019-03-01T21:08:11.823Z,64.72
2019-03-01T21:10:37.713Z,64.56
2019-03-01T21:13:03.701Z,65.42
2019-03-01T21:15:29.558Z,65.47
2019-03-01T21:17:57.135Z,65.06
2019-03-01T21:20:23.367Z,64.99
2019-03-01T21:22:49.378Z,64.90
2019-03-01T21:25:23.536Z,65.32
2019-03-01T21:27:49.464Z,65.25
2019-03-01T21:30:28.909Z,64.91
2019-03-01T21:32:54.981Z,64.40
2019-03-01T21:35:21.031Z,65.10
2019-03-01T21:37:47.084Z,65.07
2019-03-01T21:40:16.380Z,65.05
2019-03-01T21:42:42.311Z,65.33
2019-03-01T21:45:17.825Z,65.80
2019-03-01T21:47:44.635Z,66.04
2019-03-01T21:50:12.290Z,65.76
2019-03-01T21:52:39.248Z,65.71
2019-03-01T21:55:13.519Z,65.62
2019-03-01T21:57:39.472Z,65.91
2019-03-01T22:00:09.169Z,65.76
2019-03-01T22:02:35.106Z,65.87
2019-03-01T22:05:01.140Z,65.93
2019-03-01T22:07:27.082Z,66.03
2019-03-01T22:09:53.011Z,66.03
2019-03-01T22:12:20.865Z,65.74
2019-03-01T22:14:49.031Z,65.98
2019-03-01T22:17:14.465Z,65.93
2019-03-01T22:19:40.307Z,65.76
2019-03-01T22:22:07.384Z,66.12
2019-03-01T22:24:34.214Z,66.48
2019-03-01T22:27:00.242Z,66.50
2019-03-01T22:29:26.276Z,66.71
2019-03-01T22:31:52.121Z,66.68
2019-03-01T22:34:18.027Z,67.52
2019-03-01T22:36:43.959Z,67.57
2019-03-01T22:39:09.883Z,67.92
2019-03-01T22:41:39.297Z,68.06
2019-03-01T22:44:03.594Z,67.97
2019-03-01T22:46:29.445Z,68.00
2019-03-01T22:48:56.684Z,67.82
2019-03-01T22:51:23.370Z,67.64
2019-03-01T22:53:49.226Z,67.69
2019-03-01T22:56:15.189Z,67.35
2019-03-01T22:58:41.006Z,67.52
2019-03-01T23:01:09.429Z,67.16
2019-03-01T23:03:35.367Z,67.02
2019-03-01T23:06:01.335Z,66.85
2019-03-01T23:08:27.473Z,66.53
2019-03-01T23:10:53.768Z,65.96
2019-03-01T23:13:21.849Z,66.03
2019-03-01T23:15:47.917Z,66.24
2019-03-01T23:18:13.756Z,66.41
2019-03-01T23:20:40.370Z,66.23
2019-03-01T23:23:06.229Z,66.55
2019-03-01T23:25:32.037Z,66.87
2019-03-01T23:27:57.925Z,67.30
2019-03-01T23:30:25.738Z,66.94
2019-03-01T23:32:52.683Z,66.66
2019-03-01T23:35:19.413Z,66.86
2019-03-01T23:37:45.293Z,66.53
2019-03-01T23:40:11.228Z,66.99
2019-03-01T23:42:37.265Z,66.58
2019-03-01T23:45:08.477Z,66.39
2019-03-01T23:47:34.733Z,66.35
2019-03-01T23:50:04.002Z,66.36
2019-03-01T23:52:29.825Z,66.16
2019-03-01T23:54:55.835Z,66.24
2019-03-01T23:57:21.682Z,66.56
2019-03-01T23:59:47.523Z,66.85
